createdAt,value
2022-08-12T00:00:02.434Z,2.92
2022-08-12T00:02:48.247Z,2.50
2022-08-12T00:05:34.959Z,2.88
2022-08-12T00:08:28.918Z,2.72
2022-08-12T00:11:22.584Z,2.97
2022-08-12T00:14:08.545Z,2.72
2022-08-12T00:16:54.228Z,2.65
2022-08-12T00:19:39.396Z,2.70
2022-08-12T00:22:26.516Z,2.80
2022-08-12T00:25:17.891Z,2.85
2022-08-12T00:28:05.779Z,2.80
2022-08-12T00:30:53.192Z,2.58
2022-08-12T00:33:52.406Z,2.60
2022-08-12T00:36:45.116Z,2.80
2022-08-12T00:39:31.265Z,2.78
2022-08-12T00:42:10.715Z,2.80
2022-08-12T00:44:43.220Z,2.45
2022-08-12T00:47:25.143Z,2.40
2022-08-12T00:49:55.688Z,2.10
2022-08-12T00:52:23.158Z,2.80
2022-08-12T00:54:53.949Z,2.58
2022-08-12T00:57:24.728Z,2.60
2022-08-12T01:00:01.211Z,2.22
2022-08-12T01:02:33.562Z,2.60
2022-08-12T01:05:21.677Z,2.83
2022-08-12T01:08:08.515Z,2.67
2022-08-12T01:10:55.954Z,2.53
2022-08-12T01:13:23.593Z,2.95
2022-08-12T01:15:53.340Z,2.30
2022-08-12T01:18:21.792Z,2.38
2022-08-12T01:21:17.419Z,2.78
2022-08-12T01:24:27.986Z,2.20
2022-08-12T01:26:59.345Z,2.78
2022-08-12T01:29:32.981Z,2.40
2022-08-12T01:32:05.371Z,2.30
2022-08-12T01:34:37.639Z,2.10
2022-08-12T01:37:07.533Z,2.88
2022-08-12T01:40:33.580Z,2.20
2022-08-12T01:42:51.820Z,2.70
2022-08-12T01:45:24.376Z,2.78
2022-08-12T01:48:13.276Z,2.75
2022-08-12T01:50:51.754Z,2.67
2022-08-12T01:53:23.678Z,2.58
2022-08-12T01:55:50.727Z,2.90
2022-08-12T01:58:27.276Z,2.95
2022-08-12T02:01:00.908Z,2.53
2022-08-12T02:03:52.454Z,2.65
2022-08-12T02:07:02.833Z,3.10
2022-08-12T02:10:08.638Z,2.90
2022-08-12T02:12:47.841Z,2.65
2022-08-12T02:15:35.811Z,2.40
2022-08-12T02:18:22.845Z,2.80
2022-08-12T02:21:07.797Z,2.50
2022-08-12T02:23:38.348Z,3.05
2022-08-12T02:26:08.949Z,2.38
2022-08-12T02:28:37.880Z,2.30
2022-08-12T02:31:08.835Z,2.95
2022-08-12T02:33:37.692Z,2.13
2022-08-12T02:36:06.052Z,2.15
2022-08-12T02:38:33.828Z,2.53
2022-08-12T02:41:03.799Z,2.55
2022-08-12T02:43:41.367Z,2.60
2022-08-12T02:46:14.565Z,2.35
2022-08-12T02:49:00.880Z,2.90
2022-08-12T02:51:38.416Z,2.50
2022-08-12T02:54:07.263Z,3.00
2022-08-12T02:56:42.176Z,2.67
2022-08-12T02:59:19.642Z,2.92
2022-08-12T03:01:49.820Z,3.33
2022-08-12T03:04:43.826Z,2.75
2022-08-12T03:07:16.581Z,2.63
2022-08-12T03:10:03.586Z,2.85
2022-08-12T03:12:40.732Z,2.53
2022-08-12T03:15:19.032Z,2.72
2022-08-12T03:18:23.833Z,3.15
2022-08-12T03:20:54.656Z,2.83
2022-08-12T03:23:29.937Z,2.88
2022-08-12T03:26:02.898Z,3.17
2022-08-12T03:28:50.910Z,3.42
2022-08-12T03:31:33.708Z,2.83
2022-08-12T03:34:08.095Z,2.40
2022-08-12T03:36:37.154Z,2.85
2022-08-12T03:39:15.912Z,2.05
2022-08-12T03:42:03.152Z,2.45
2022-08-12T03:45:17.828Z,2.58
2022-08-12T03:48:11.343Z,2.88
2022-08-12T03:51:04.542Z,2.78
2022-08-12T03:53:50.537Z,3.03
2022-08-12T03:56:36.060Z,2.50
2022-08-12T03:59:23.954Z,2.78
2022-08-12T04:01:57.179Z,3.17
2022-08-12T04:04:25.616Z,2.38
2022-08-12T04:06:52.973Z,2.72
2022-08-12T04:09:21.514Z,2.42
2022-08-12T04:12:07.565Z,2.97
2022-08-12T04:14:35.524Z,2.85
2022-08-12T04:17:03.211Z,2.75
2022-08-12T04:19:31.099Z,2.70
2022-08-12T04:22:01.144Z,2.78
2022-08-12T04:24:31.905Z,2.58
2022-08-12T04:26:59.133Z,3.10
2022-08-12T04:30:17.148Z,3.30
2022-08-12T04:32:14.014Z,2.65
2022-08-12T04:34:43.772Z,2.50
2022-08-12T04:37:12.064Z,2.28
2022-08-12T04:39:39.909Z,2.75
2022-08-12T04:42:06.732Z,3.00
2022-08-12T04:44:33.365Z,2.30
2022-08-12T04:47:00.146Z,2.70
2022-08-12T04:49:27.774Z,2.55
2022-08-12T04:51:59.507Z,2.67
2022-08-12T04:54:27.909Z,2.72
2022-08-12T04:57:03.145Z,2.30
2022-08-12T04:59:48.403Z,2.92
2022-08-12T05:02:21.102Z,2.20
2022-08-12T05:05:01.060Z,2.40
2022-08-12T05:07:28.536Z,2.72
2022-08-12T05:09:59.932Z,2.80
2022-08-12T05:12:38.486Z,2.67
2022-08-12T05:15:19.770Z,2.80
2022-08-12T05:17:55.429Z,2.60
2022-08-12T05:23:19.615Z,2.65
2022-08-12T05:25:49.836Z,2.35
2022-08-12T05:28:18.115Z,2.28
2022-08-12T05:30:46.593Z,2.45
2022-08-12T05:33:15.716Z,2.60
2022-08-12T05:35:45.808Z,2.65
2022-08-12T05:38:34.668Z,2.90
2022-08-12T05:41:03.139Z,2.15
2022-08-12T05:43:30.201Z,2.95
2022-08-12T05:45:57.315Z,2.10
2022-08-12T05:48:24.590Z,3.10
2022-08-12T05:50:53.184Z,3.22
2022-08-12T05:53:20.327Z,3.55
2022-08-12T05:55:47.272Z,3.00
2022-08-12T05:58:14.220Z,3.53
2022-08-12T06:00:42.538Z,2.65
2022-08-12T06:03:09.696Z,2.70
2022-08-12T06:05:54.291Z,2.83
2022-08-12T06:08:23.305Z,2.28
2022-08-12T06:10:50.703Z,3.00
2022-08-12T06:13:28.425Z,2.63
2022-08-12T06:16:10.133Z,2.28
2022-08-12T06:18:40.982Z,2.30
2022-08-12T06:21:08.838Z,2.20
2022-08-12T06:23:41.877Z,3.03
2022-08-12T06:26:11.861Z,2.10
2022-08-12T06:28:39.811Z,2.70
2022-08-12T06:31:26.122Z,2.38
2022-08-12T06:35:22.620Z,3.20
2022-08-12T06:36:42.870Z,2.60
2022-08-12T06:39:15.036Z,2.33
2022-08-12T06:44:52.524Z,2.03
2022-08-12T06:47:19.538Z,2.38
2022-08-12T06:49:46.547Z,2.45
2022-08-12T06:52:13.290Z,2.42
2022-08-12T06:54:45.769Z,2.13
2022-08-12T06:58:06.986Z,2.20
2022-08-12T06:59:59.168Z,2.35
2022-08-12T07:02:25.842Z,2.45
2022-08-12T07:04:55.507Z,2.33
2022-08-12T07:10:03.717Z,2.50
2022-08-12T07:12:34.018Z,2.20
2022-08-12T07:15:02.056Z,2.13
2022-08-12T07:17:37.283Z,2.65
2022-08-12T07:20:10.264Z,2.30
2022-08-12T07:22:47.601Z,2.40
2022-08-12T07:25:37.177Z,1.60
2022-08-12T07:28:17.780Z,2.60
2022-08-12T07:30:48.360Z,2.30
2022-08-12T07:33:17.071Z,2.17
2022-08-12T07:35:48.121Z,2.13
2022-08-12T07:38:33.503Z,2.20
2022-08-12T07:41:07.917Z,2.25
2022-08-12T07:43:48.392Z,2.42
2022-08-12T07:46:19.811Z,2.35
2022-08-12T07:48:55.468Z,2.50
2022-08-12T07:51:24.819Z,2.28
2022-08-12T07:54:01.073Z,2.38
2022-08-12T07:56:33.494Z,2.45
2022-08-12T07:59:01.260Z,2.53
2022-08-12T08:01:28.341Z,2.33
2022-08-12T08:04:18.777Z,2.60
2022-08-12T08:06:47.809Z,2.13
2022-08-12T08:09:16.305Z,1.98
2022-08-12T08:12:01.736Z,2.40
2022-08-12T08:14:29.091Z,2.55
2022-08-12T08:16:57.394Z,2.47
2022-08-12T08:19:25.393Z,2.35
2022-08-12T08:21:54.866Z,2.45
2022-08-12T08:26:53.898Z,1.92
2022-08-12T08:29:22.622Z,2.40
2022-08-12T08:31:54.024Z,1.85
2022-08-12T08:34:27.735Z,2.60
2022-08-12T08:37:10.675Z,2.50
2022-08-12T08:39:42.300Z,2.47
2022-08-12T08:42:51.280Z,2.10
2022-08-12T08:45:18.277Z,2.20
2022-08-12T08:47:46.967Z,2.10
2022-08-12T08:50:16.486Z,2.27
2022-08-12T08:55:13.826Z,2.15
2022-08-12T08:57:44.673Z,1.80
2022-08-12T09:00:19.830Z,2.47
2022-08-12T09:02:49.416Z,1.58
2022-08-12T09:05:27.463Z,2.13
2022-08-12T09:08:08.928Z,2.42
2022-08-12T09:10:45.470Z,1.67
2022-08-12T09:14:10.571Z,2.25
2022-08-12T09:16:20.401Z,2.03
2022-08-12T09:18:48.304Z,2.00
2022-08-12T09:21:19.803Z,1.80
2022-08-12T09:24:00.078Z,2.15
2022-08-12T09:26:38.180Z,1.90
2022-08-12T09:29:20.418Z,1.90
2022-08-12T09:32:09.399Z,1.52
2022-08-12T09:34:41.979Z,1.98
2022-08-12T09:37:19.899Z,1.83
2022-08-12T09:43:16.994Z,1.83
2022-08-12T09:46:11.634Z,1.60
2022-08-12T09:48:34.973Z,1.50
2022-08-12T09:51:04.618Z,1.67
2022-08-12T09:53:39.633Z,1.67
2022-08-12T09:56:58.683Z,1.58
2022-08-12T09:58:59.901Z,1.77
2022-08-12T10:01:34.346Z,1.60
2022-08-12T10:04:04.933Z,1.70
2022-08-12T10:06:36.739Z,1.65
2022-08-12T10:09:19.216Z,1.30
2022-08-12T10:12:12.111Z,1.55
2022-08-12T10:14:50.385Z,1.60
2022-08-12T10:17:22.729Z,1.77
2022-08-12T10:22:39.347Z,1.90
2022-08-12T10:26:33.944Z,1.70
2022-08-12T10:28:38.275Z,2.60
2022-08-12T10:31:06.069Z,1.60
2022-08-12T10:33:43.979Z,1.88
2022-08-12T10:36:40.357Z,1.70
2022-08-12T10:39:44.246Z,1.60
2022-08-12T10:42:29.045Z,1.55
2022-08-12T10:45:03.888Z,1.60
2022-08-12T10:48:19.069Z,1.52
2022-08-12T10:50:28.157Z,1.35
2022-08-12T10:53:08.726Z,1.50
2022-08-12T10:55:36.011Z,1.60
2022-08-12T10:58:15.148Z,2.05
2022-08-12T11:01:25.944Z,1.83
2022-08-12T11:04:31.476Z,1.38
2022-08-12T11:07:06.647Z,1.55
2022-08-12T11:09:12.683Z,2.17
2022-08-12T11:12:35.291Z,1.40
2022-08-12T11:14:49.098Z,1.73
2022-08-12T11:17:43.769Z,1.50
2022-08-12T11:20:05.132Z,1.52
2022-08-12T11:22:39.462Z,1.63
2022-08-12T11:25:11.395Z,1.45
2022-08-12T11:27:38.261Z,1.38
2022-08-12T11:30:30.428Z,1.70
2022-08-12T11:32:52.128Z,1.40
2022-08-12T11:35:18.750Z,1.70
2022-08-12T11:37:59.355Z,1.42
2022-08-12T11:40:26.389Z,1.20
2022-08-12T11:43:00.326Z,1.92
2022-08-12T11:45:42.358Z,1.45
2022-08-12T11:48:15.494Z,1.35
2022-08-12T11:53:57.810Z,1.70
2022-08-12T11:55:59.120Z,1.27
2022-08-12T11:59:27.529Z,1.25
2022-08-12T12:02:02.219Z,1.48
2022-08-12T12:03:59.329Z,1.20
2022-08-12T12:06:26.083Z,1.48
2022-08-12T12:08:53.903Z,1.50
2022-08-12T12:11:22.074Z,1.50
2022-08-12T12:14:08.581Z,1.60
2022-08-12T12:16:37.943Z,1.33
2022-08-12T12:19:10.082Z,1.30
2022-08-12T12:21:48.652Z,1.52
2022-08-12T12:24:21.108Z,1.33
2022-08-12T12:26:59.664Z,1.27
2022-08-12T12:30:18.437Z,1.42
2022-08-12T12:32:16.109Z,1.25
2022-08-12T12:35:44.243Z,1.33
2022-08-12T12:38:04.121Z,1.33
2022-08-12T12:40:16.102Z,1.40
2022-08-12T12:42:55.383Z,1.55
2022-08-12T12:45:25.928Z,1.45
2022-08-12T12:48:02.579Z,1.50
2022-08-12T12:50:45.216Z,1.50
2022-08-12T12:54:06.541Z,1.30
2022-08-12T12:56:06.187Z,1.40
2022-08-12T12:58:34.070Z,1.30
2022-08-12T13:01:04.937Z,1.30
2022-08-12T13:03:53.167Z,1.47
2022-08-12T13:06:25.461Z,1.17
2022-08-12T13:08:57.202Z,1.30
2022-08-12T13:11:40.692Z,1.30
2022-08-12T13:14:12.934Z,1.17
2022-08-12T13:16:55.340Z,1.20
2022-08-12T13:19:25.425Z,1.30
2022-08-12T13:22:23.459Z,1.30
2022-08-12T13:24:55.569Z,1.20
2022-08-12T13:27:35.723Z,1.73
2022-08-12T13:30:12.034Z,1.35
2022-08-12T13:32:57.515Z,1.70
2022-08-12T13:35:33.565Z,1.20
2022-08-12T13:38:26.875Z,1.30
2022-08-12T13:41:03.158Z,1.50
2022-08-12T13:43:41.510Z,1.30
2022-08-12T13:46:12.469Z,1.50
2022-08-12T13:48:45.384Z,1.42
2022-08-12T13:51:13.112Z,1.70
2022-08-12T13:53:58.981Z,1.38
2022-08-12T13:56:29.925Z,1.30
2022-08-12T13:59:08.090Z,1.35
2022-08-12T14:01:40.098Z,1.98
2022-08-12T14:04:11.408Z,1.25
2022-08-12T14:06:39.648Z,1.30
2022-08-12T14:09:17.537Z,1.58
2022-08-12T14:11:59.042Z,2.13
2022-08-12T14:14:31.325Z,2.00
2022-08-12T14:17:05.503Z,1.90
2022-08-12T14:19:37.615Z,1.70
2022-08-12T14:22:06.669Z,1.40
2022-08-12T14:24:41.113Z,1.65
2022-08-12T14:27:10.285Z,1.20
2022-08-12T14:30:05.922Z,1.83
2022-08-12T14:32:28.849Z,1.38
2022-08-12T14:34:56.707Z,1.55
2022-08-12T14:37:58.196Z,1.55
2022-08-12T14:40:11.706Z,1.52
2022-08-12T14:42:45.067Z,1.10
2022-08-12T14:45:14.210Z,1.15
2022-08-12T14:47:53.647Z,1.50
2022-08-12T14:50:41.243Z,1.50
2022-08-12T14:55:05.663Z,1.33
2022-08-12T14:59:23.227Z,1.27
2022-08-12T15:01:51.911Z,1.10
2022-08-12T15:04:26.149Z,1.20
2022-08-12T15:06:53.061Z,1.73
2022-08-12T15:09:28.611Z,1.42
2022-08-12T15:12:03.198Z,1.55
2022-08-12T15:14:31.491Z,1.48
2022-08-12T15:17:01.616Z,1.23
2022-08-12T15:20:28.262Z,1.35
2022-08-12T15:22:39.416Z,1.00
2022-08-12T15:25:07.280Z,1.15
2022-08-12T15:28:04.631Z,1.00
2022-08-12T15:30:30.983Z,1.33
2022-08-12T15:32:58.430Z,1.20
2022-08-12T15:35:38.235Z,1.17
2022-08-12T15:38:19.815Z,1.00
2022-08-12T15:40:55.149Z,1.20
2022-08-12T15:43:51.044Z,1.20
2022-08-12T15:46:15.094Z,1.20
2022-08-12T15:48:44.139Z,1.33
2022-08-12T15:51:27.552Z,1.10
2022-08-12T15:54:33.145Z,1.60
2022-08-12T15:57:02.391Z,1.48
2022-08-12T15:59:32.671Z,1.15
2022-08-12T16:02:18.697Z,1.27
2022-08-12T16:04:50.176Z,0.93
2022-08-12T16:07:21.700Z,1.45
2022-08-12T16:10:05.052Z,1.20
2022-08-12T16:12:41.884Z,1.25
2022-08-12T16:15:15.506Z,1.30
2022-08-12T16:18:18.226Z,1.10
2022-08-12T16:20:33.994Z,1.05
2022-08-12T16:23:36.043Z,1.27
2022-08-12T16:26:05.245Z,0.95
2022-08-12T16:28:33.523Z,1.40
2022-08-12T16:31:01.988Z,1.42
2022-08-12T16:33:56.350Z,1.40
2022-08-12T16:36:25.379Z,1.20
2022-08-12T16:38:52.227Z,1.40
2022-08-12T16:41:18.880Z,1.30
2022-08-12T16:43:46.815Z,0.98
2022-08-12T16:46:31.787Z,1.40
2022-08-12T16:51:52.694Z,1.00
2022-08-12T16:54:26.719Z,1.00
2022-08-12T16:59:57.741Z,11.18
2022-08-12T17:02:33.433Z,11.65
2022-08-12T17:07:55.451Z,64.30
2022-08-12T17:10:36.599Z,34.83
2022-08-12T17:13:10.197Z,8.60
2022-08-12T17:18:43.713Z,25.30
2022-08-12T17:21:40.959Z,11.93
2022-08-12T17:24:14.998Z,14.48
2022-08-12T17:30:02.987Z,8.07
2022-08-12T17:32:28.091Z,9.00
2022-08-12T17:35:13.861Z,5.67
2022-08-12T17:40:36.857Z,51.75
2022-08-12T17:43:51.762Z,62.47
2022-08-12T17:48:55.432Z,33.88
2022-08-12T17:51:24.685Z,32.55
2022-08-12T17:54:11.318Z,50.92
2022-08-12T17:56:43.319Z,29.08
2022-08-12T18:02:08.935Z,26.45
2022-08-12T18:04:36.421Z,24.20
2022-08-12T18:07:08.290Z,4.10
2022-08-12T18:09:36.745Z,15.50
2022-08-12T18:12:24.517Z,11.80
2022-08-12T18:15:02.251Z,4.90
2022-08-12T18:17:30.427Z,9.25
2022-08-12T18:22:36.406Z,3.58
2022-08-12T18:26:12.404Z,3.30
2022-08-12T18:28:16.601Z,1.70
2022-08-12T18:30:52.238Z,1.10
2022-08-12T18:33:24.778Z,2.38
2022-08-12T18:35:55.567Z,1.25
2022-08-12T18:38:24.601Z,1.38
2022-08-12T18:41:21.698Z,1.23
2022-08-12T18:44:02.654Z,1.33
2022-08-12T18:46:40.724Z,1.02
2022-08-12T18:51:55.266Z,1.77
2022-08-12T18:54:35.335Z,3.00
2022-08-12T18:57:15.491Z,1.27
2022-08-12T19:00:02.495Z,2.13
2022-08-12T19:02:37.050Z,1.75
2022-08-12T19:05:11.538Z,1.42
2022-08-12T19:08:01.209Z,2.65
2022-08-12T19:10:31.192Z,2.10
2022-08-12T19:13:21.057Z,1.10
2022-08-12T19:15:50.234Z,1.80
2022-08-12T19:18:17.602Z,1.90
2022-08-12T19:20:50.577Z,1.48
2022-08-12T19:23:21.279Z,1.60
2022-08-12T19:26:01.710Z,1.55
2022-08-12T19:28:35.646Z,1.00
2022-08-12T19:31:56.502Z,1.25
2022-08-12T19:37:38.491Z,0.90
2022-08-12T19:40:32.496Z,1.45
2022-08-12T19:43:13.459Z,1.40
2022-08-12T19:45:50.391Z,2.08
2022-08-12T19:48:19.976Z,1.60
2022-08-12T19:53:20.560Z,1.17
2022-08-12T19:55:54.405Z,2.47
2022-08-12T19:58:22.073Z,1.23
2022-08-12T20:00:56.409Z,1.48
2022-08-12T20:03:38.484Z,1.55
2022-08-12T20:06:15.792Z,1.40
2022-08-12T20:08:56.663Z,1.42
2022-08-12T20:12:14.177Z,1.15
2022-08-12T20:14:18.994Z,1.02
2022-08-12T20:16:52.218Z,1.10
2022-08-12T20:19:23.377Z,1.10
2022-08-12T20:21:50.834Z,0.93
2022-08-12T20:24:19.097Z,1.10
2022-08-12T20:26:46.591Z,1.00
2022-08-12T20:29:14.960Z,0.70
2022-08-12T20:31:43.861Z,1.20
2022-08-12T20:34:12.384Z,1.00
2022-08-12T20:36:44.815Z,0.77
2022-08-12T20:39:37.206Z,1.35
2022-08-12T20:42:07.095Z,1.95
2022-08-12T20:44:40.036Z,1.30
2022-08-12T20:47:18.445Z,2.28
2022-08-12T20:49:47.015Z,22.95
2022-08-12T20:52:25.418Z,5.80
2022-08-12T20:54:57.238Z,7.13
2022-08-12T20:57:23.894Z,7.65
2022-08-12T20:59:52.706Z,9.70
2022-08-12T21:02:24.673Z,12.18
2022-08-12T21:05:20.314Z,13.90
2022-08-12T21:07:52.166Z,7.88
2022-08-12T21:10:21.310Z,5.63
2022-08-12T21:12:53.471Z,1.55
2022-08-12T21:15:30.240Z,6.88
2022-08-12T21:18:11.439Z,2.20
2022-08-12T21:20:52.444Z,1.13
2022-08-12T21:23:21.718Z,1.10
2022-08-12T21:25:51.294Z,1.60
2022-08-12T21:28:20.448Z,1.10
2022-08-12T21:31:10.642Z,0.90
2022-08-12T21:34:06.182Z,1.55
2022-08-12T21:36:34.750Z,1.13
2022-08-12T21:41:51.146Z,0.88
2022-08-12T21:44:24.851Z,1.13
2022-08-12T21:47:12.094Z,1.05
2022-08-12T21:50:02.566Z,0.60
2022-08-12T21:52:34.881Z,0.70
2022-08-12T21:55:04.006Z,1.25
2022-08-12T21:57:50.610Z,1.40
2022-08-12T22:00:19.668Z,1.10
2022-08-12T22:03:05.359Z,1.00
2022-08-12T22:05:50.528Z,3.15
2022-08-12T22:08:22.302Z,13.05
2022-08-12T22:10:52.499Z,4.32
2022-08-12T22:14:07.182Z,3.60
2022-08-12T22:16:10.361Z,2.85
2022-08-12T22:18:40.171Z,1.20
2022-08-12T22:21:08.955Z,0.68
2022-08-12T22:23:51.824Z,1.23
2022-08-12T22:26:29.129Z,1.23
2022-08-12T22:29:22.550Z,2.33
2022-08-12T22:31:49.624Z,1.00
2022-08-12T22:34:18.114Z,1.80
2022-08-12T22:36:47.204Z,1.10
2022-08-12T22:39:17.291Z,1.00
2022-08-12T22:42:03.208Z,1.27
2022-08-12T22:44:54.322Z,1.13
2022-08-12T22:50:29.691Z,0.82
2022-08-12T22:53:16.067Z,1.00
2022-08-12T22:58:41.448Z,1.40
2022-08-12T23:01:13.816Z,0.98
2022-08-12T23:03:50.952Z,1.08
2022-08-12T23:09:22.161Z,1.10
2022-08-12T23:11:51.120Z,0.90
2022-08-12T23:14:19.320Z,0.90
2022-08-12T23:16:54.435Z,1.08
2022-08-12T23:19:29.575Z,6.30
2022-08-12T23:22:35.643Z,4.72
2022-08-12T23:27:50.917Z,3.15
2022-08-12T23:30:31.965Z,15.70
2022-08-12T23:33:20.511Z,1.52
2022-08-12T23:35:59.342Z,8.45
2022-08-12T23:41:25.519Z,1.50
2022-08-12T23:43:56.562Z,1.73
2022-08-12T23:46:28.424Z,2.10
2022-08-12T23:48:59.669Z,1.00
2022-08-12T23:51:32.183Z,1.20
2022-08-12T23:54:07.057Z,1.10
2022-08-12T23:56:35.450Z,1.20
2022-08-12T23:59:07.116Z,0.98
